createdAt,value
2023-04-27T00:01:42.194Z,4.80
2023-04-27T00:04:09.440Z,4.60
2023-04-27T00:06:36.625Z,5.07
2023-04-27T00:09:04.514Z,4.80
2023-04-27T00:11:31.723Z,4.77
2023-04-27T00:13:58.701Z,5.00
2023-04-27T00:16:26.208Z,5.10
2023-04-27T00:18:53.146Z,4.90
2023-04-27T00:21:20.213Z,4.80
2023-04-27T00:23:47.148Z,5.20
2023-04-27T00:26:14.080Z,4.80
2023-04-27T00:28:44.186Z,5.57
2023-04-27T00:31:11.344Z,5.10
2023-04-27T00:33:38.364Z,5.00
2023-04-27T00:36:05.656Z,5.13
2023-04-27T00:38:32.536Z,4.80
2023-04-27T00:41:06.626Z,5.30
2023-04-27T00:43:41.295Z,5.07
2023-04-27T00:46:09.225Z,5.10
2023-04-27T00:48:36.597Z,5.23
2023-04-27T00:51:03.820Z,5.00
2023-04-27T00:53:32.082Z,5.57
2023-04-27T00:55:59.092Z,5.30
2023-04-27T00:58:26.338Z,5.00
2023-04-27T01:00:53.370Z,4.90
2023-04-27T01:03:20.594Z,5.07
2023-04-27T01:05:47.566Z,5.00
2023-04-27T01:08:14.963Z,5.27
2023-04-27T01:10:42.340Z,5.10
2023-04-27T01:13:10.704Z,5.33
2023-04-27T01:15:38.265Z,4.90
2023-04-27T01:18:09.966Z,4.90
2023-04-27T01:20:38.874Z,4.87
2023-04-27T01:23:06.449Z,4.60
2023-04-27T01:25:33.343Z,5.00
2023-04-27T01:28:02.752Z,4.90
2023-04-27T01:30:30.802Z,4.53
2023-04-27T01:32:59.247Z,5.20
2023-04-27T01:35:28.252Z,4.87
2023-04-27T01:38:00.261Z,4.43
2023-04-27T01:40:27.200Z,4.80
2023-04-27T01:42:54.058Z,4.90
2023-04-27T01:45:21.045Z,5.00
2023-04-27T01:47:47.934Z,5.57
2023-04-27T01:50:14.817Z,5.80
2023-04-27T01:52:41.649Z,5.53
2023-04-27T01:55:08.853Z,5.60
2023-04-27T01:57:35.837Z,5.70
2023-04-27T02:00:04.801Z,5.50
2023-04-27T02:02:47.590Z,5.50
2023-04-27T02:05:14.562Z,6.30
2023-04-27T02:07:41.426Z,5.40
2023-04-27T02:10:08.845Z,5.57
2023-04-27T02:12:35.733Z,5.23
2023-04-27T02:15:03.833Z,5.10
2023-04-27T02:17:31.853Z,5.53
2023-04-27T02:19:58.857Z,5.20
2023-04-27T02:22:26.962Z,4.90
2023-04-27T02:24:53.842Z,5.30
2023-04-27T02:27:21.022Z,5.40
2023-04-27T02:29:48.239Z,4.97
2023-04-27T02:32:15.629Z,4.90
2023-04-27T02:34:42.549Z,4.67
2023-04-27T02:37:09.407Z,5.50
2023-04-27T02:39:36.538Z,4.70
2023-04-27T02:42:06.682Z,5.10
2023-04-27T02:44:33.528Z,5.37
2023-04-27T02:47:00.605Z,4.23
2023-04-27T02:49:27.735Z,4.70
2023-04-27T02:51:54.571Z,4.87
2023-04-27T02:54:21.414Z,4.57
2023-04-27T02:56:48.319Z,4.93
2023-04-27T02:59:15.440Z,4.70
2023-04-27T03:01:42.777Z,4.40
2023-04-27T03:04:10.002Z,4.83
2023-04-27T03:06:37.073Z,4.83
2023-04-27T03:09:03.984Z,4.97
2023-04-27T03:11:30.968Z,5.10
2023-04-27T03:13:57.916Z,4.50
2023-04-27T03:16:24.921Z,4.90
2023-04-27T03:18:51.811Z,5.30
2023-04-27T03:21:18.674Z,5.17
2023-04-27T03:23:49.251Z,5.50
2023-04-27T03:26:16.757Z,5.23
2023-04-27T03:28:43.689Z,5.37
2023-04-27T03:31:12.619Z,5.60
2023-04-27T03:33:40.543Z,4.97
2023-04-27T03:36:08.757Z,5.20
2023-04-27T03:38:35.847Z,4.97
2023-04-27T03:41:03.392Z,4.63
2023-04-27T03:43:30.282Z,5.10
2023-04-27T03:45:57.485Z,4.63
2023-04-27T03:48:24.588Z,4.93
2023-04-27T03:50:53.687Z,4.60
2023-04-27T03:53:21.010Z,5.07
2023-04-27T03:55:48.602Z,5.20
2023-04-27T03:58:17.531Z,5.20
2023-04-27T04:01:10.264Z,5.33
2023-04-27T04:03:37.952Z,4.80
2023-04-27T04:06:07.829Z,4.70
2023-04-27T04:08:34.737Z,4.43
2023-04-27T04:11:01.796Z,4.93
2023-04-27T04:13:29.656Z,4.97
2023-04-27T04:16:05.034Z,4.73
2023-04-27T04:18:32.375Z,5.30
2023-04-27T04:20:59.368Z,4.60
2023-04-27T04:23:26.910Z,5.07
2023-04-27T04:25:57.723Z,4.80
2023-04-27T04:28:27.575Z,4.77
2023-04-27T04:30:54.718Z,4.80
2023-04-27T04:33:22.050Z,4.90
2023-04-27T04:35:49.043Z,4.90
2023-04-27T04:38:15.962Z,5.00
2023-04-27T04:40:45.779Z,4.77
2023-04-27T04:43:13.417Z,4.73
2023-04-27T04:45:42.869Z,4.20
2023-04-27T04:48:11.753Z,4.40
2023-04-27T04:50:39.719Z,4.77
2023-04-27T04:53:06.602Z,4.37
2023-04-27T04:55:34.300Z,4.50
2023-04-27T04:58:02.030Z,4.40
2023-04-27T05:00:29.677Z,4.30
2023-04-27T05:02:56.609Z,4.40
2023-04-27T05:05:23.599Z,4.40
2023-04-27T05:07:50.447Z,4.67
2023-04-27T05:10:17.479Z,4.80
2023-04-27T05:12:44.679Z,4.60
2023-04-27T05:15:11.900Z,4.70
2023-04-27T05:17:38.790Z,4.83
2023-04-27T05:20:06.632Z,5.00
2023-04-27T05:22:33.496Z,4.50
2023-04-27T05:25:00.454Z,4.20
2023-04-27T05:27:27.430Z,5.00
2023-04-27T05:29:54.267Z,4.20
2023-04-27T05:32:21.317Z,4.47
2023-04-27T05:34:49.549Z,4.57
2023-04-27T05:37:16.629Z,4.43
2023-04-27T05:39:43.496Z,4.43
2023-04-27T05:42:10.590Z,5.07
2023-04-27T05:44:37.444Z,4.70
2023-04-27T05:47:04.399Z,4.97
2023-04-27T05:49:31.716Z,4.40
2023-04-27T05:51:59.104Z,4.40
2023-04-27T05:54:27.585Z,4.63
2023-04-27T05:56:54.527Z,4.43
2023-04-27T05:59:21.958Z,4.60
2023-04-27T06:01:49.159Z,4.00
2023-04-27T06:04:16.268Z,4.47
2023-04-27T06:06:44.884Z,4.10
2023-04-27T06:09:12.018Z,4.40
2023-04-27T06:11:39.102Z,4.00
2023-04-27T06:14:05.966Z,4.20
2023-04-27T06:16:33.001Z,4.70
2023-04-27T06:19:00.037Z,4.30
2023-04-27T06:21:26.900Z,4.27
2023-04-27T06:23:53.742Z,3.97
2023-04-27T06:26:20.618Z,3.83
2023-04-27T06:28:47.465Z,4.03
2023-04-27T06:31:14.328Z,4.43
2023-04-27T06:33:41.672Z,4.07
2023-04-27T06:36:08.609Z,4.23
2023-04-27T06:38:35.496Z,4.23
2023-04-27T06:41:03.131Z,4.37
2023-04-27T06:43:30.896Z,4.10
2023-04-27T06:45:57.826Z,4.13
2023-04-27T06:48:24.841Z,4.43
2023-04-27T06:50:52.087Z,3.90
2023-04-27T06:53:18.976Z,4.10
2023-04-27T06:55:48.312Z,4.10
2023-04-27T06:58:15.456Z,4.13
2023-04-27T07:00:42.385Z,4.57
2023-04-27T07:03:09.471Z,4.53
2023-04-27T07:05:36.490Z,5.57
2023-04-27T07:08:06.177Z,5.23
2023-04-27T07:10:35.233Z,4.37
2023-04-27T07:13:02.194Z,4.17
2023-04-27T07:15:30.588Z,4.03
2023-04-27T07:17:57.634Z,4.00
2023-04-27T07:20:24.795Z,4.47
2023-04-27T07:22:51.608Z,4.27
2023-04-27T07:25:18.516Z,4.20
2023-04-27T07:27:45.548Z,4.43
2023-04-27T07:30:14.157Z,4.10
2023-04-27T07:32:44.518Z,4.77
2023-04-27T07:35:11.472Z,4.47
2023-04-27T07:37:38.499Z,4.07
2023-04-27T07:40:11.564Z,4.37
2023-04-27T07:42:39.931Z,4.43
2023-04-27T07:45:07.638Z,4.67
2023-04-27T07:47:34.657Z,4.27
2023-04-27T07:50:01.538Z,4.43
2023-04-27T07:52:28.485Z,3.70
2023-04-27T07:54:55.347Z,4.30
2023-04-27T07:57:22.193Z,3.87
2023-04-27T07:59:49.150Z,4.10
2023-04-27T08:02:19.667Z,4.30
2023-04-27T08:04:48.100Z,4.47
2023-04-27T08:07:17.585Z,4.17
2023-04-27T08:09:44.917Z,4.43
2023-04-27T08:12:11.839Z,4.67
2023-04-27T08:14:38.689Z,4.00
2023-04-27T08:17:05.742Z,4.27
2023-04-27T08:19:32.724Z,4.33
2023-04-27T08:21:59.584Z,4.30
2023-04-27T08:24:26.366Z,4.90
2023-04-27T08:26:53.265Z,4.07
2023-04-27T08:29:27.910Z,4.20
2023-04-27T08:31:56.858Z,4.63
2023-04-27T08:34:24.217Z,4.60
2023-04-27T08:36:51.323Z,4.97
2023-04-27T08:39:18.496Z,4.30
2023-04-27T08:41:46.439Z,4.33
2023-04-27T08:44:13.455Z,4.37
2023-04-27T08:46:41.837Z,5.27
2023-04-27T08:49:09.905Z,4.33
2023-04-27T08:51:37.311Z,4.37
2023-04-27T08:54:04.595Z,4.53
2023-04-27T08:56:31.837Z,4.57
2023-04-27T08:59:01.737Z,4.47
2023-04-27T09:01:28.610Z,4.60
2023-04-27T09:04:01.301Z,5.00
2023-04-27T09:06:35.829Z,4.60
2023-04-27T09:09:03.981Z,4.80
2023-04-27T09:11:36.512Z,4.60
2023-04-27T09:14:17.977Z,4.67
2023-04-27T09:16:45.107Z,4.20
2023-04-27T09:19:12.256Z,4.60
2023-04-27T09:21:39.333Z,4.47
2023-04-27T09:24:14.048Z,4.20
2023-04-27T09:26:43.056Z,4.37
2023-04-27T09:29:10.332Z,4.17
2023-04-27T09:31:37.470Z,4.07
2023-04-27T09:34:04.642Z,3.93
2023-04-27T09:36:32.765Z,4.30
2023-04-27T09:39:04.719Z,4.13
2023-04-27T09:41:33.311Z,4.27
2023-04-27T09:44:00.988Z,4.03
2023-04-27T09:46:29.542Z,4.17
2023-04-27T09:48:57.615Z,4.83
2023-04-27T09:51:24.529Z,4.20
2023-04-27T09:53:59.272Z,4.17
2023-04-27T09:56:41.162Z,3.90
2023-04-27T09:59:30.194Z,4.47
2023-04-27T10:02:07.329Z,4.60
2023-04-27T10:05:13.591Z,4.60
2023-04-27T10:07:43.244Z,4.53
2023-04-27T10:10:18.428Z,4.10
2023-04-27T10:12:57.096Z,4.97
2023-04-27T10:15:28.553Z,4.00
2023-04-27T10:17:58.885Z,4.03
2023-04-27T10:20:36.382Z,4.33
2023-04-27T10:23:03.912Z,4.50
2023-04-27T10:25:40.585Z,4.40
2023-04-27T10:28:10.323Z,4.77
2023-04-27T10:30:39.135Z,4.93
2023-04-27T10:33:10.995Z,4.40
2023-04-27T10:35:39.195Z,5.20
2023-04-27T10:38:17.402Z,5.20
2023-04-27T10:40:46.150Z,4.23
2023-04-27T10:43:16.259Z,4.30
2023-04-27T10:45:45.427Z,4.13
2023-04-27T10:48:16.008Z,4.70
2023-04-27T10:50:44.917Z,4.67
2023-04-27T10:53:12.668Z,4.87
2023-04-27T10:55:39.720Z,4.90
2023-04-27T10:58:06.919Z,4.80
2023-04-27T11:00:41.665Z,4.40
2023-04-27T11:03:22.421Z,4.10
2023-04-27T11:05:58.749Z,4.67
2023-04-27T11:08:26.103Z,5.10
2023-04-27T11:10:53.149Z,4.60
2023-04-27T11:13:21.990Z,4.20
2023-04-27T11:15:51.531Z,4.70
2023-04-27T11:18:20.676Z,4.83
2023-04-27T11:20:52.869Z,4.30
2023-04-27T11:23:27.981Z,4.57
2023-04-27T11:25:56.431Z,4.60
2023-04-27T11:28:24.444Z,4.83
2023-04-27T11:30:59.184Z,4.60
2023-04-27T11:33:27.185Z,4.37
2023-04-27T11:35:54.824Z,4.47
2023-04-27T11:38:22.064Z,4.47
2023-04-27T11:41:06.113Z,4.37
2023-04-27T11:43:33.665Z,4.17
2023-04-27T11:46:05.994Z,5.00
2023-04-27T11:48:33.076Z,4.60
2023-04-27T11:51:01.346Z,4.37
2023-04-27T11:53:34.153Z,4.27
2023-04-27T11:56:11.169Z,4.10
2023-04-27T11:58:39.773Z,4.03
2023-04-27T12:01:07.652Z,3.73
2023-04-27T12:03:35.124Z,3.80
2023-04-27T12:08:32.295Z,3.80
2023-04-27T12:10:59.183Z,4.10
2023-04-27T12:13:26.043Z,4.00
2023-04-27T12:15:52.936Z,3.60
2023-04-27T12:18:20.795Z,3.93
2023-04-27T12:20:47.689Z,4.50
2023-04-27T12:23:14.709Z,4.27
2023-04-27T12:25:41.676Z,3.90
2023-04-27T12:28:08.977Z,3.60
2023-04-27T12:30:36.239Z,3.60
2023-04-27T12:33:09.675Z,3.80
2023-04-27T12:35:36.850Z,3.53
2023-04-27T12:38:03.770Z,3.67
2023-04-27T12:40:30.796Z,3.60
2023-04-27T12:43:00.524Z,3.43
2023-04-27T12:45:28.081Z,3.53
2023-04-27T12:48:03.476Z,3.57
2023-04-27T12:50:32.443Z,3.23
2023-04-27T12:53:00.177Z,4.33
2023-04-27T12:55:33.737Z,3.50
2023-04-27T12:58:02.042Z,3.80
2023-04-27T13:00:29.852Z,3.07
2023-04-27T13:02:57.417Z,3.13
2023-04-27T13:05:24.504Z,2.90
2023-04-27T13:07:51.345Z,3.03
2023-04-27T13:10:18.256Z,3.30
2023-04-27T13:12:45.685Z,2.90
2023-04-27T13:15:12.554Z,3.30
2023-04-27T13:17:40.261Z,2.83
2023-04-27T13:20:09.756Z,2.80
2023-04-27T13:22:36.721Z,2.80
2023-04-27T13:25:04.996Z,2.93
2023-04-27T13:27:31.958Z,3.20
2023-04-27T13:29:58.851Z,3.27
2023-04-27T13:32:26.828Z,3.30
2023-04-27T13:34:53.677Z,3.13
2023-04-27T13:37:20.554Z,3.00
2023-04-27T13:39:47.380Z,3.20
2023-04-27T13:42:14.322Z,3.30
2023-04-27T13:44:41.453Z,3.20
2023-04-27T13:47:08.400Z,2.70
2023-04-27T13:49:35.288Z,3.10
2023-04-27T13:52:02.189Z,3.00
2023-04-27T13:54:29.145Z,3.20
2023-04-27T13:56:56.345Z,3.20
2023-04-27T13:59:23.261Z,2.90
2023-04-27T14:01:50.453Z,3.10
2023-04-27T14:04:17.421Z,3.10
2023-04-27T14:06:45.315Z,2.83
2023-04-27T14:09:12.277Z,3.10
2023-04-27T14:11:48.925Z,3.60
2023-04-27T14:14:22.741Z,2.70
2023-04-27T14:16:51.222Z,2.87
2023-04-27T14:19:20.433Z,2.97
2023-04-27T14:21:48.141Z,2.97
2023-04-27T14:24:15.238Z,2.70
2023-04-27T14:26:44.269Z,3.07
2023-04-27T14:29:11.846Z,2.67
2023-04-27T14:31:40.029Z,2.70
2023-04-27T14:34:07.842Z,2.70
2023-04-27T14:36:35.015Z,2.80
2023-04-27T14:39:01.928Z,2.70
2023-04-27T14:41:28.857Z,2.70
2023-04-27T14:43:55.973Z,2.90
2023-04-27T14:46:23.339Z,2.47
2023-04-27T14:48:51.260Z,3.67
2023-04-27T14:51:18.610Z,3.20
2023-04-27T14:53:45.480Z,3.20
2023-04-27T14:56:12.390Z,3.37
2023-04-27T14:58:39.353Z,2.60
2023-04-27T15:01:07.656Z,2.80
2023-04-27T15:03:35.025Z,2.50
2023-04-27T15:06:03.125Z,2.40
2023-04-27T15:08:32.708Z,3.00
2023-04-27T15:11:01.243Z,2.67
2023-04-27T15:13:28.504Z,2.70
2023-04-27T15:15:56.643Z,2.63
2023-04-27T15:18:24.402Z,2.33
2023-04-27T15:20:55.606Z,2.23
2023-04-27T15:23:24.039Z,2.50
2023-04-27T15:25:54.750Z,2.63
2023-04-27T15:28:23.027Z,2.47
2023-04-27T15:30:50.661Z,2.20
2023-04-27T15:33:18.346Z,2.33
2023-04-27T15:35:45.267Z,2.70
2023-04-27T15:38:16.197Z,2.40
2023-04-27T15:40:43.179Z,2.60
2023-04-27T15:43:10.069Z,2.67
2023-04-27T15:45:37.140Z,2.70
2023-04-27T15:48:04.384Z,2.43
2023-04-27T15:50:31.416Z,2.77
2023-04-27T15:52:58.290Z,3.00
2023-04-27T15:55:25.367Z,2.33
2023-04-27T15:57:53.157Z,2.70
2023-04-27T16:00:22.374Z,2.80
2023-04-27T16:02:49.733Z,2.63
2023-04-27T16:05:16.938Z,2.60
2023-04-27T16:07:44.824Z,2.50
2023-04-27T16:10:12.372Z,2.43
2023-04-27T16:12:39.756Z,2.43
2023-04-27T16:15:09.991Z,2.47
2023-04-27T16:17:38.296Z,2.80
2023-04-27T16:20:06.846Z,2.57
2023-04-27T16:22:34.852Z,2.60
2023-04-27T16:25:02.362Z,3.00
2023-04-27T16:27:29.246Z,2.90
2023-04-27T16:29:56.752Z,2.90
2023-04-27T16:32:23.826Z,2.90
2023-04-27T16:34:51.077Z,2.67
2023-04-27T16:37:18.028Z,2.80
2023-04-27T16:39:45.219Z,2.60
2023-04-27T16:42:16.304Z,2.83
2023-04-27T16:44:43.273Z,2.87
2023-04-27T16:47:10.180Z,2.60
2023-04-27T16:49:37.837Z,2.10
2023-04-27T16:52:05.268Z,2.13
2023-04-27T16:54:32.144Z,2.13
2023-04-27T16:56:59.140Z,2.40
2023-04-27T16:59:26.058Z,2.30
2023-04-27T17:01:53.054Z,2.30
2023-04-27T17:04:20.272Z,2.10
2023-04-27T17:06:48.435Z,2.10
2023-04-27T17:09:15.552Z,2.53
2023-04-27T17:11:42.650Z,2.37
2023-04-27T17:14:09.496Z,2.40
2023-04-27T17:16:36.442Z,2.17
2023-04-27T17:19:03.883Z,2.13
2023-04-27T17:21:31.794Z,2.60
2023-04-27T17:23:58.923Z,2.10
2023-04-27T17:26:26.111Z,2.30
2023-04-27T17:28:53.087Z,2.30
2023-04-27T17:31:20.100Z,2.00
2023-04-27T17:33:47.013Z,2.10
2023-04-27T17:36:15.089Z,2.70
2023-04-27T17:38:42.094Z,2.30
2023-04-27T17:41:09.156Z,2.50
2023-04-27T17:43:37.697Z,2.33
2023-04-27T17:46:09.832Z,3.10
2023-04-27T17:48:37.519Z,2.50
2023-04-27T17:51:04.501Z,2.40
2023-04-27T17:53:31.532Z,2.10
2023-04-27T17:55:58.489Z,2.40
2023-04-27T17:58:25.704Z,2.60
2023-04-27T18:00:52.758Z,1.90
2023-04-27T18:03:19.860Z,2.50
2023-04-27T18:05:46.794Z,2.27
2023-04-27T18:08:13.748Z,2.57
2023-04-27T18:10:41.386Z,1.80
2023-04-27T18:13:08.339Z,2.27
2023-04-27T18:15:35.264Z,2.10
2023-04-27T18:18:02.151Z,1.93
2023-04-27T18:20:29.440Z,2.10
2023-04-27T18:22:56.709Z,1.80
2023-04-27T18:25:23.629Z,1.90
2023-04-27T18:27:55.782Z,2.00
2023-04-27T18:30:22.995Z,2.30
2023-04-27T18:32:49.967Z,2.00
2023-04-27T18:35:16.880Z,2.17
2023-04-27T18:37:48.186Z,2.03
2023-04-27T18:40:19.302Z,1.83
2023-04-27T18:42:46.205Z,2.60
2023-04-27T18:45:13.297Z,2.00
2023-04-27T18:47:40.254Z,2.10
2023-04-27T18:50:07.893Z,2.00
2023-04-27T18:52:35.042Z,2.10
2023-04-27T18:55:01.984Z,2.53
2023-04-27T18:57:28.849Z,2.60
2023-04-27T18:59:56.080Z,10.00
2023-04-27T19:02:25.117Z,11.70
2023-04-27T19:05:01.460Z,6.50
2023-04-27T19:07:34.518Z,9.27
2023-04-27T19:10:01.368Z,6.10
2023-04-27T19:12:28.187Z,5.50
2023-04-27T19:14:55.129Z,3.00
2023-04-27T19:17:22.219Z,2.20
2023-04-27T19:19:49.300Z,2.73
2023-04-27T19:22:16.226Z,3.67
2023-04-27T19:24:43.079Z,4.30
2023-04-27T19:27:11.592Z,4.70
2023-04-27T19:29:53.157Z,5.43
2023-04-27T19:32:21.488Z,5.73
2023-04-27T19:34:49.071Z,5.50
2023-04-27T19:37:16.138Z,5.43
2023-04-27T19:39:43.108Z,5.53
2023-04-27T19:42:09.997Z,4.60
2023-04-27T19:44:36.891Z,5.50
2023-04-27T19:47:03.789Z,5.67
2023-04-27T19:49:32.732Z,5.63
2023-04-27T19:52:03.495Z,5.37
2023-04-27T19:54:30.533Z,5.33
2023-04-27T19:56:57.565Z,5.33
2023-04-27T19:59:24.474Z,5.00
2023-04-27T20:01:51.944Z,5.20
2023-04-27T20:04:19.296Z,4.93
2023-04-27T20:06:47.321Z,5.10
2023-04-27T20:09:14.162Z,4.70
2023-04-27T20:11:41.030Z,5.73
2023-04-27T20:14:07.877Z,4.37
2023-04-27T20:16:34.805Z,4.03
2023-04-27T20:19:01.686Z,4.50
2023-04-27T20:21:29.493Z,4.77
2023-04-27T20:23:56.428Z,5.40
2023-04-27T20:26:24.453Z,5.10
2023-04-27T20:28:51.366Z,5.80
2023-04-27T20:31:18.243Z,5.93
2023-04-27T20:33:45.141Z,6.27
2023-04-27T20:36:17.348Z,6.97
2023-04-27T20:38:45.469Z,6.30
2023-04-27T20:41:12.427Z,6.90
2023-04-27T20:43:40.073Z,6.97
2023-04-27T20:46:08.014Z,6.80
2023-04-27T20:48:34.976Z,7.20
2023-04-27T20:51:02.508Z,7.60
2023-04-27T20:53:29.779Z,8.13
2023-04-27T20:55:57.082Z,7.57
2023-04-27T20:58:24.122Z,7.63
2023-04-27T21:00:51.529Z,8.20
2023-04-27T21:03:18.614Z,8.20
2023-04-27T21:05:45.999Z,8.07
2023-04-27T21:08:13.048Z,7.77
2023-04-27T21:10:39.925Z,7.23
2023-04-27T21:13:07.143Z,7.73
2023-04-27T21:15:34.124Z,8.27
2023-04-27T21:18:01.219Z,8.07
2023-04-27T21:20:28.159Z,8.00
2023-04-27T21:22:55.068Z,7.10
2023-04-27T21:25:23.618Z,7.83
2023-04-27T21:27:51.029Z,7.37
2023-04-27T21:30:17.910Z,7.37
2023-04-27T21:32:44.947Z,7.33
2023-04-27T21:35:11.945Z,7.20
2023-04-27T21:37:38.820Z,6.83
2023-04-27T21:40:06.469Z,6.47
2023-04-27T21:42:33.387Z,6.47
2023-04-27T21:45:00.726Z,6.43
2023-04-27T21:47:27.685Z,6.63
2023-04-27T21:49:54.528Z,6.63
2023-04-27T21:52:21.812Z,6.87
2023-04-27T21:54:48.789Z,7.33
2023-04-27T21:57:16.580Z,6.83
2023-04-27T21:59:44.634Z,5.87
2023-04-27T22:02:11.554Z,6.03
2023-04-27T22:04:39.105Z,5.70
2023-04-27T22:07:08.207Z,6.10
2023-04-27T22:09:35.823Z,5.50
2023-04-27T22:12:03.505Z,6.03
2023-04-27T22:14:31.371Z,6.20
2023-04-27T22:16:58.568Z,5.70
2023-04-27T22:19:25.477Z,5.63
2023-04-27T22:21:52.519Z,5.43
2023-04-27T22:24:19.438Z,4.70
2023-04-27T22:26:48.367Z,4.83
2023-04-27T22:29:16.330Z,4.80
2023-04-27T22:31:44.488Z,4.70
2023-04-27T22:34:14.835Z,4.90
2023-04-27T22:36:42.009Z,4.90
2023-04-27T22:39:08.974Z,4.50
2023-04-27T22:41:36.193Z,4.77
2023-04-27T22:44:03.139Z,4.60
2023-04-27T22:46:30.093Z,4.23
2023-04-27T22:48:58.696Z,4.40
2023-04-27T22:51:27.287Z,4.53
2023-04-27T22:53:54.662Z,4.10
2023-04-27T22:56:22.535Z,4.43
2023-04-27T22:58:49.516Z,4.40
2023-04-27T23:01:16.646Z,4.10
2023-04-27T23:03:43.633Z,4.80
2023-04-27T23:06:14.468Z,4.33
2023-04-27T23:08:46.955Z,4.67
2023-04-27T23:11:15.489Z,4.10
2023-04-27T23:13:42.457Z,4.63
2023-04-27T23:16:10.151Z,4.37
2023-04-27T23:18:37.268Z,3.80
2023-04-27T23:21:04.305Z,4.27
2023-04-27T23:23:31.296Z,3.90
2023-04-27T23:25:58.228Z,4.10
2023-04-27T23:28:25.147Z,4.13
2023-04-27T23:30:53.909Z,3.90
2023-04-27T23:33:21.883Z,3.83
2023-04-27T23:35:48.852Z,4.10
2023-04-27T23:38:15.792Z,3.97
2023-04-27T23:40:42.646Z,3.97
2023-04-27T23:43:09.536Z,3.87
2023-04-27T23:45:36.457Z,3.53
2023-04-27T23:48:03.986Z,3.57
2023-04-27T23:50:30.950Z,3.57
2023-04-27T23:52:57.791Z,3.80
2023-04-27T23:55:24.663Z,3.63
2023-04-27T23:57:52.546Z,3.47
